createdAt,value
2022-08-23T00:02:40.419Z,6.07
2022-08-23T00:07:45.547Z,6.03
2022-08-23T00:12:48.269Z,6.00
2022-08-23T00:17:50.992Z,5.30
2022-08-23T00:22:53.825Z,5.60
2022-08-23T00:27:56.560Z,4.87
2022-08-23T00:33:00.811Z,4.77
2022-08-23T00:38:33.014Z,4.50
2022-08-23T00:43:57.251Z,3.87
2022-08-23T00:49:02.170Z,4.50
2022-08-23T00:54:05.544Z,4.93
2022-08-23T00:59:08.940Z,4.47
2022-08-23T01:04:12.942Z,4.67
2022-08-23T01:09:21.238Z,5.00
2022-08-23T01:14:31.819Z,4.63
2022-08-23T01:19:40.913Z,4.83
2022-08-23T01:25:07.243Z,5.17
2022-08-23T01:30:11.006Z,5.00
2022-08-23T01:35:14.875Z,4.17
2022-08-23T01:40:17.856Z,5.07
2022-08-23T01:45:20.686Z,5.00
2022-08-23T01:50:24.138Z,4.47
2022-08-23T01:55:27.819Z,4.37
2022-08-23T02:00:34.223Z,4.63
2022-08-23T02:05:37.399Z,4.83
2022-08-23T02:10:40.087Z,5.30
2022-08-23T02:15:47.117Z,5.10
2022-08-23T02:20:51.594Z,4.87
2022-08-23T02:25:54.991Z,5.13
2022-08-23T02:30:57.729Z,4.47
2022-08-23T02:36:01.572Z,4.93
2022-08-23T02:41:04.282Z,4.37
2022-08-23T02:46:07.243Z,4.80
2022-08-23T02:51:10.014Z,4.87
2022-08-23T02:56:21.685Z,5.33
2022-08-23T03:01:34.773Z,6.10
2022-08-23T03:06:38.353Z,6.03
2022-08-23T03:11:45.518Z,5.73
2022-08-23T03:16:48.216Z,6.47
2022-08-23T03:21:51.087Z,5.43
2022-08-23T03:26:53.802Z,6.17
2022-08-23T03:31:56.500Z,6.47
2022-08-23T03:37:00.514Z,6.10
2022-08-23T03:42:04.339Z,6.83
2022-08-23T03:47:07.347Z,7.13
2022-08-23T03:52:11.418Z,6.40
2022-08-23T03:57:14.125Z,6.80
2022-08-23T04:02:17.461Z,6.63
2022-08-23T04:07:21.424Z,7.20
2022-08-23T04:12:24.455Z,7.43
2022-08-23T04:17:27.517Z,8.50
2022-08-23T04:22:30.262Z,7.97
2022-08-23T04:27:33.059Z,8.43
2022-08-23T04:32:35.750Z,8.77
2022-08-23T04:37:39.162Z,8.13
2022-08-23T04:42:41.937Z,9.50
2022-08-23T04:47:45.229Z,9.23
2022-08-23T04:52:48.281Z,9.93
2022-08-23T04:57:51.097Z,10.50
2022-08-23T05:02:55.563Z,9.90
2022-08-23T05:07:58.351Z,11.83
2022-08-23T05:13:01.065Z,11.63
2022-08-23T05:18:03.806Z,12.20
2022-08-23T05:23:06.697Z,11.47
2022-08-23T05:28:09.396Z,11.10
2022-08-23T05:33:14.355Z,14.50
2022-08-23T05:38:20.695Z,13.90
2022-08-23T05:43:24.313Z,13.07
2022-08-23T05:48:26.996Z,13.00
2022-08-23T05:53:31.395Z,13.70
2022-08-23T05:58:35.219Z,13.70
2022-08-23T06:03:38.214Z,13.57
2022-08-23T06:08:41.393Z,13.53
2022-08-23T06:13:47.536Z,12.50
2022-08-23T06:18:50.763Z,12.80
2022-08-23T06:23:53.504Z,13.35
2022-08-23T06:28:58.188Z,14.90
2022-08-23T06:34:01.529Z,14.48
2022-08-23T06:39:06.498Z,15.63
2022-08-23T06:44:09.353Z,16.37
2022-08-23T06:49:12.786Z,18.02
2022-08-23T06:54:16.999Z,15.45
2022-08-23T06:59:21.514Z,14.82
2022-08-23T07:04:34.351Z,15.05
2022-08-23T07:09:37.193Z,16.75
2022-08-23T07:14:40.070Z,18.77
2022-08-23T07:19:44.207Z,22.08
2022-08-23T07:24:47.052Z,20.30
2022-08-23T07:29:49.803Z,19.27
2022-08-23T07:34:52.602Z,17.88
2022-08-23T07:39:58.503Z,16.95
2022-08-23T07:45:02.811Z,17.25
2022-08-23T07:50:09.024Z,18.73
2022-08-23T07:55:11.787Z,17.15
2022-08-23T08:00:15.397Z,17.80
2022-08-23T08:05:21.540Z,16.80
2022-08-23T08:10:25.123Z,17.92
2022-08-23T08:15:27.986Z,18.85
2022-08-23T08:20:33.041Z,19.58
2022-08-23T08:25:35.736Z,18.08
2022-08-23T08:30:39.287Z,20.17
2022-08-23T08:35:41.990Z,19.45
2022-08-23T08:40:44.841Z,25.67
2022-08-23T08:46:05.585Z,26.35
2022-08-23T08:51:25.146Z,25.63
2022-08-23T08:56:35.358Z,25.85
2022-08-23T09:01:38.907Z,23.50
2022-08-23T09:07:18.542Z,24.73
2022-08-23T09:12:56.175Z,22.63
2022-08-23T09:18:13.663Z,19.63
2022-08-23T09:23:39.011Z,18.27
2022-08-23T09:28:41.816Z,17.63
2022-08-23T09:33:46.294Z,18.17
2022-08-23T09:38:54.869Z,19.15
2022-08-23T09:43:59.211Z,18.40
2022-08-23T09:49:29.815Z,19.95
2022-08-23T09:54:37.220Z,18.77
2022-08-23T09:59:51.682Z,18.38
2022-08-23T10:05:07.260Z,19.58
2022-08-23T10:10:47.066Z,19.92
2022-08-23T10:16:05.679Z,20.30
2022-08-23T10:21:32.769Z,20.42
2022-08-23T10:26:38.037Z,19.08
2022-08-23T10:31:40.720Z,17.80
2022-08-23T10:36:58.641Z,17.95
2022-08-23T10:42:31.752Z,17.20
2022-08-23T10:47:38.557Z,18.48
2022-08-23T10:53:05.842Z,18.38
2022-08-23T10:58:13.715Z,18.73
2022-08-23T11:03:29.958Z,19.15
2022-08-23T11:08:35.145Z,18.75
2022-08-23T11:13:40.753Z,18.95
2022-08-23T11:18:44.564Z,17.50
2022-08-23T11:23:59.344Z,19.40
2022-08-23T11:29:07.849Z,20.85
2022-08-23T11:34:29.934Z,19.90
2022-08-23T11:39:58.993Z,20.80
2022-08-23T11:45:02.135Z,18.75
2022-08-23T11:50:19.810Z,21.30
2022-08-23T11:55:47.250Z,21.98
2022-08-23T12:00:53.242Z,18.65
2022-08-23T12:05:55.905Z,22.17
2022-08-23T12:11:02.263Z,20.50
2022-08-23T12:16:16.736Z,20.52
2022-08-23T12:21:38.722Z,19.48
2022-08-23T12:27:09.383Z,20.85
2022-08-23T12:32:18.001Z,19.98
2022-08-23T12:37:28.585Z,20.00
2022-08-23T12:42:36.843Z,20.85
2022-08-23T12:47:44.387Z,20.60
2022-08-23T12:53:01.314Z,20.20
2022-08-23T12:58:05.142Z,17.90
2022-08-23T13:03:15.180Z,20.80
2022-08-23T13:08:27.314Z,19.95
2022-08-23T13:13:42.501Z,18.58
2022-08-23T13:18:46.054Z,18.58
2022-08-23T13:23:52.479Z,18.02
2022-08-23T13:29:21.646Z,18.42
2022-08-23T13:34:53.412Z,18.75
2022-08-23T13:40:00.327Z,20.02
2022-08-23T13:45:14.924Z,20.27
2022-08-23T13:50:27.048Z,17.60
2022-08-23T13:55:30.988Z,17.23
2022-08-23T14:00:33.817Z,18.48
2022-08-23T14:05:39.243Z,17.45
2022-08-23T14:10:42.774Z,18.83
2022-08-23T14:21:09.146Z,18.95
2022-08-23T14:26:17.413Z,14.38
2022-08-23T14:31:20.747Z,18.48
2022-08-23T14:36:23.680Z,16.10
2022-08-23T14:41:32.965Z,15.70
2022-08-23T14:46:35.680Z,19.15
2022-08-23T14:51:44.804Z,20.88
2022-08-23T14:56:48.356Z,19.48
2022-08-23T15:01:53.094Z,19.92
2022-08-23T15:07:17.147Z,16.27
2022-08-23T15:17:52.387Z,17.88
2022-08-23T15:22:56.106Z,17.15
2022-08-23T15:28:00.236Z,16.45
2022-08-23T15:33:03.806Z,16.88
2022-08-23T15:38:07.078Z,16.77
2022-08-23T15:43:09.848Z,18.42
2022-08-23T15:48:22.535Z,17.38
2022-08-23T15:53:25.484Z,16.17
2022-08-23T15:58:29.017Z,20.42
2022-08-23T16:03:31.966Z,20.10
2022-08-23T16:08:38.228Z,16.52
2022-08-23T16:13:46.399Z,20.42
2022-08-23T16:18:51.599Z,19.85
2022-08-23T16:23:55.650Z,18.67
2022-08-23T16:28:59.554Z,19.05
2022-08-23T16:34:03.962Z,17.88
2022-08-23T16:39:07.333Z,18.73
2022-08-23T16:44:10.087Z,17.77
2022-08-23T16:49:14.634Z,16.73
2022-08-23T16:54:19.316Z,16.98
2022-08-23T16:59:22.900Z,17.85
2022-08-23T17:04:30.228Z,15.63
2022-08-23T17:09:33.167Z,15.52
2022-08-23T17:14:36.222Z,16.77
2022-08-23T17:19:39.371Z,15.88
2022-08-23T17:24:45.153Z,16.40
2022-08-23T17:29:48.020Z,17.25
2022-08-23T17:34:51.736Z,16.40
2022-08-23T17:39:54.619Z,16.40
2022-08-23T17:44:57.831Z,15.63
2022-08-23T17:50:00.898Z,15.95
2022-08-23T17:55:04.104Z,15.50
2022-08-23T18:00:08.563Z,17.05
2022-08-23T18:05:12.132Z,15.18
2022-08-23T18:10:15.012Z,15.85
2022-08-23T18:15:18.614Z,14.95
2022-08-23T18:20:22.660Z,15.07
2022-08-23T18:25:48.438Z,16.63
2022-08-23T18:31:47.522Z,15.23
2022-08-23T18:36:51.331Z,15.63
2022-08-23T18:41:54.900Z,18.02
2022-08-23T18:46:58.010Z,16.52
2022-08-23T18:52:01.828Z,15.52
2022-08-23T18:57:05.195Z,15.57
2022-08-23T19:02:08.424Z,15.40
2022-08-23T19:07:11.222Z,17.52
2022-08-23T19:12:14.468Z,16.40
2022-08-23T19:17:17.231Z,17.95
2022-08-23T19:22:20.143Z,18.63
2022-08-23T19:27:23.063Z,18.50
2022-08-23T19:32:25.882Z,19.17
2022-08-23T19:37:28.823Z,17.85
2022-08-23T19:42:36.620Z,17.88
2022-08-23T19:47:40.320Z,18.88
2022-08-23T19:52:43.492Z,22.45
2022-08-23T19:57:46.772Z,23.95
2022-08-23T20:02:49.751Z,22.98
2022-08-23T20:07:52.533Z,21.77
2022-08-23T20:12:55.429Z,22.77
2022-08-23T20:17:58.882Z,22.98
2022-08-23T20:23:20.148Z,25.15
2022-08-23T20:28:26.283Z,25.20
2022-08-23T20:33:31.088Z,23.65
2022-08-23T20:38:34.241Z,31.65
2022-08-23T20:43:39.179Z,22.95
2022-08-23T20:48:41.869Z,25.08
2022-08-23T20:53:45.853Z,23.60
2022-08-23T20:58:48.985Z,24.83
2022-08-23T21:03:52.170Z,23.90
2022-08-23T21:08:57.906Z,26.35
2022-08-23T21:14:00.843Z,26.05
2022-08-23T21:19:04.024Z,25.70
2022-08-23T21:24:08.235Z,26.50
2022-08-23T21:29:11.483Z,30.60
2022-08-23T21:34:14.248Z,28.35
2022-08-23T21:39:17.256Z,27.00
2022-08-23T21:44:21.125Z,24.63
2022-08-23T21:49:23.963Z,22.63
2022-08-23T21:54:26.810Z,21.53
2022-08-23T21:59:29.811Z,20.40
2022-08-23T22:04:32.515Z,18.10
2022-08-23T22:09:35.278Z,20.88
2022-08-23T22:14:38.118Z,17.67
2022-08-23T22:19:40.873Z,19.48
2022-08-23T22:24:43.798Z,20.55
2022-08-23T22:29:46.601Z,19.88
2022-08-23T22:34:49.635Z,19.13
2022-08-23T22:39:56.370Z,19.83
2022-08-23T22:44:59.667Z,19.87
2022-08-23T22:50:03.708Z,18.52
2022-08-23T22:55:06.838Z,18.02
2022-08-23T23:00:11.337Z,18.30
2022-08-23T23:05:14.568Z,17.85
2022-08-23T23:10:17.308Z,18.92
2022-08-23T23:15:20.015Z,17.77
2022-08-23T23:20:41.122Z,15.75
2022-08-23T23:25:46.181Z,15.93
2022-08-23T23:30:51.143Z,15.57
2022-08-23T23:35:53.900Z,15.65
2022-08-23T23:40:56.565Z,15.55
2022-08-23T23:45:59.393Z,15.48
2022-08-23T23:51:05.127Z,15.85
2022-08-23T23:56:10.923Z,16.20
